sensor_id;sensor_type;location;lat;lon;timestamp;temperature;humidity
59282;DHT22;45054;52.062;10.010;2023-11-22T00:01:56;1.80;99.90
59282;DHT22;45054;52.062;10.010;2023-11-22T00:04:22;1.80;99.90
59282;DHT22;45054;52.062;10.010;2023-11-22T00:06:47;1.80;99.90
59282;DHT22;45054;52.062;10.010;2023-11-22T00:09:13;1.80;99.90
59282;DHT22;45054;52.062;10.010;2023-11-22T00:11:38;1.80;99.90
59282;DHT22;45054;52.062;10.010;2023-11-22T00:14:04;1.70;99.90
59282;DHT22;45054;52.062;10.010;2023-11-22T00:16:31;1.60;99.90
59282;DHT22;45054;52.062;10.010;2023-11-22T00:18:56;1.60;99.90
59282;DHT22;45054;52.062;10.010;2023-11-22T00:21:22;1.50;99.90
59282;DHT22;45054;52.062;10.010;2023-11-22T00:23:47;1.50;99.90
59282;DHT22;45054;52.062;10.010;2023-11-22T00:26:12;1.50;99.90
59282;DHT22;45054;52.062;10.010;2023-11-22T00:28:38;1.50;99.90
59282;DHT22;45054;52.062;10.010;2023-11-22T00:31:03;1.60;99.90
59282;DHT22;45054;52.062;10.010;2023-11-22T00:33:30;1.60;99.90
59282;DHT22;45054;52.062;10.010;2023-11-22T00:35:56;1.70;99.90
59282;DHT22;45054;52.062;10.010;2023-11-22T00:38:21;1.80;99.90
59282;DHT22;45054;52.062;10.010;2023-11-22T00:40:47;1.90;99.90
59282;DHT22;45054;52.062;10.010;2023-11-22T00:43:12;2.00;99.90
59282;DHT22;45054;52.062;10.010;2023-11-22T00:45:38;2.10;99.90
59282;DHT22;45054;52.062;10.010;2023-11-22T00:48:03;2.10;99.90
59282;DHT22;45054;52.062;10.010;2023-11-22T00:50:30;2.00;99.90
59282;DHT22;45054;52.062;10.010;2023-11-22T00:52:55;2.00;99.90
59282;DHT22;45054;52.062;10.010;2023-11-22T00:55:21;1.90;99.90
59282;DHT22;45054;52.062;10.010;2023-11-22T00:57:46;1.90;99.90
59282;DHT22;45054;52.062;10.010;2023-11-22T01:00:12;1.80;99.90
59282;DHT22;45054;52.062;10.010;2023-11-22T01:02:37;1.70;99.90
59282;DHT22;45054;52.062;10.010;2023-11-22T01:05:03;1.70;99.90
59282;DHT22;45054;52.062;10.010;2023-11-22T01:07:30;1.60;99.90
59282;DHT22;45054;52.062;10.010;2023-11-22T01:09:55;1.60;99.90
59282;DHT22;45054;52.062;10.010;2023-11-22T01:12:21;1.60;99.90
59282;DHT22;45054;52.062;10.010;2023-11-22T01:14:46;1.60;99.90
59282;DHT22;45054;52.062;10.010;2023-11-22T01:17:12;1.50;99.90
59282;DHT22;45054;52.062;10.010;2023-11-22T01:19:37;1.60;99.90
59282;DHT22;45054;52.062;10.010;2023-11-22T01:22:03;1.60;99.90
59282;DHT22;45054;52.062;10.010;2023-11-22T01:24:30;1.50;99.90
59282;DHT22;45054;52.062;10.010;2023-11-22T01:26:55;1.60;99.90
59282;DHT22;45054;52.062;10.010;2023-11-22T01:29:21;1.60;99.90
59282;DHT22;45054;52.062;10.010;2023-11-22T01:31:46;1.70;99.90
59282;DHT22;45054;52.062;10.010;2023-11-22T01:34:11;1.80;99.90
59282;DHT22;45054;52.062;10.010;2023-11-22T01:36:39;1.80;99.90
59282;DHT22;45054;52.062;10.010;2023-11-22T01:39:06;1.80;99.90
59282;DHT22;45054;52.062;10.010;2023-11-22T01:41:33;1.80;99.90
59282;DHT22;45054;52.062;10.010;2023-11-22T01:43:59;1.90;99.90
59282;DHT22;45054;52.062;10.010;2023-11-22T01:46:24;2.00;99.90
59282;DHT22;45054;52.062;10.010;2023-11-22T01:48:50;2.00;99.90
59282;DHT22;45054;52.062;10.010;2023-11-22T01:51:15;2.10;99.90
59282;DHT22;45054;52.062;10.010;2023-11-22T01:53:41;2.20;99.90
59282;DHT22;45054;52.062;10.010;2023-11-22T01:56:07;2.10;99.90
59282;DHT22;45054;52.062;10.010;2023-11-22T01:58:34;2.00;99.90
59282;DHT22;45054;52.062;10.010;2023-11-22T02:00:59;1.90;99.90
59282;DHT22;45054;52.062;10.010;2023-11-22T02:03:26;1.90;99.90
59282;DHT22;45054;52.062;10.010;2023-11-22T02:05:51;1.80;99.90
59282;DHT22;45054;52.062;10.010;2023-11-22T02:08:17;1.80;99.90
59282;DHT22;45054;52.062;10.010;2023-11-22T02:10:42;1.80;99.90
59282;DHT22;45054;52.062;10.010;2023-11-22T02:13:07;1.80;99.90
59282;DHT22;45054;52.062;10.010;2023-11-22T02:15:35;1.90;99.90
59282;DHT22;45054;52.062;10.010;2023-11-22T02:18:00;1.90;99.90
59282;DHT22;45054;52.062;10.010;2023-11-22T02:20:26;1.90;99.90
59282;DHT22;45054;52.062;10.010;2023-11-22T02:22:51;2.00;99.90
59282;DHT22;45054;52.062;10.010;2023-11-22T02:25:19;2.10;99.90
59282;DHT22;45054;52.062;10.010;2023-11-22T02:27:44;2.10;99.90
59282;DHT22;45054;52.062;10.010;2023-11-22T02:30:10;2.00;99.90
59282;DHT22;45054;52.062;10.010;2023-11-22T02:32:36;1.90;99.90
59282;DHT22;45054;52.062;10.010;2023-11-22T02:35:01;1.80;99.90
59282;DHT22;45054;52.062;10.010;2023-11-22T02:37:27;1.80;99.90
59282;DHT22;45054;52.062;10.010;2023-11-22T02:39:54;1.70;99.90
59282;DHT22;45054;52.062;10.010;2023-11-22T02:42:24;1.70;99.90
59282;DHT22;45054;52.062;10.010;2023-11-22T02:44:49;1.60;99.90
59282;DHT22;45054;52.062;10.010;2023-11-22T02:47:14;1.60;99.90
59282;DHT22;45054;52.062;10.010;2023-11-22T02:49:40;1.60;99.90
59282;DHT22;45054;52.062;10.010;2023-11-22T02:52:05;1.50;99.90
59282;DHT22;45054;52.062;10.010;2023-11-22T02:54:31;1.50;99.90
59282;DHT22;45054;52.062;10.010;2023-11-22T02:56:56;1.60;99.90
59282;DHT22;45054;52.062;10.010;2023-11-22T02:59:23;1.60;99.90
59282;DHT22;45054;52.062;10.010;2023-11-22T03:01:50;1.60;99.90
59282;DHT22;45054;52.062;10.010;2023-11-22T03:04:15;1.60;99.90
59282;DHT22;45054;52.062;10.010;2023-11-22T03:06:40;1.50;99.90
59282;DHT22;45054;52.062;10.010;2023-11-22T03:09:06;1.50;99.90
59282;DHT22;45054;52.062;10.010;2023-11-22T03:11:31;1.40;99.90
59282;DHT22;45054;52.062;10.010;2023-11-22T03:13:57;1.40;99.90
59282;DHT22;45054;52.062;10.010;2023-11-22T03:16:24;1.50;99.90
59282;DHT22;45054;52.062;10.010;2023-11-22T03:18:49;1.50;99.90
59282;DHT22;45054;52.062;10.010;2023-11-22T03:21:14;1.40;99.90
59282;DHT22;45054;52.062;10.010;2023-11-22T03:23:40;1.40;99.90
59282;DHT22;45054;52.062;10.010;2023-11-22T03:26:05;1.50;99.90
59282;DHT22;45054;52.062;10.010;2023-11-22T03:28:31;1.50;99.90
59282;DHT22;45054;52.062;10.010;2023-11-22T03:30:56;1.50;99.90
59282;DHT22;45054;52.062;10.010;2023-11-22T03:33:23;1.40;99.90
59282;DHT22;45054;52.062;10.010;2023-11-22T03:35:48;1.40;99.90
59282;DHT22;45054;52.062;10.010;2023-11-22T03:38:14;1.40;99.90
59282;DHT22;45054;52.062;10.010;2023-11-22T03:40:39;1.30;99.90
59282;DHT22;45054;52.062;10.010;2023-11-22T03:43:05;1.30;99.90
59282;DHT22;45054;52.062;10.010;2023-11-22T03:45:30;1.20;99.90
59282;DHT22;45054;52.062;10.010;2023-11-22T03:47:56;1.20;99.90
59282;DHT22;45054;52.062;10.010;2023-11-22T03:50:25;1.20;99.90
59282;DHT22;45054;52.062;10.010;2023-11-22T03:52:50;1.20;99.90
59282;DHT22;45054;52.062;10.010;2023-11-22T03:55:15;1.20;99.90
59282;DHT22;45054;52.062;10.010;2023-11-22T03:57:41;1.20;99.90
59282;DHT22;45054;52.062;10.010;2023-11-22T04:00:07;1.20;99.90
59282;DHT22;45054;52.062;10.010;2023-11-22T04:02:32;1.10;99.90
59282;DHT22;45054;52.062;10.010;2023-11-22T04:04:58;1.10;99.90
59282;DHT22;45054;52.062;10.010;2023-11-22T04:07:25;1.00;99.90
59282;DHT22;45054;52.062;10.010;2023-11-22T04:09:50;1.10;99.90
59282;DHT22;45054;52.062;10.010;2023-11-22T04:12:15;1.00;99.90
59282;DHT22;45054;52.062;10.010;2023-11-22T04:14:41;1.00;99.90
59282;DHT22;45054;52.062;10.010;2023-11-22T04:17:06;1.00;99.90
59282;DHT22;45054;52.062;10.010;2023-11-22T04:19:32;1.00;99.90
59282;DHT22;45054;52.062;10.010;2023-11-22T04:21:57;1.00;99.90
59282;DHT22;45054;52.062;10.010;2023-11-22T04:24:24;0.90;99.90
59282;DHT22;45054;52.062;10.010;2023-11-22T04:26:49;0.90;99.90
59282;DHT22;45054;52.062;10.010;2023-11-22T04:29:15;0.90;99.90
59282;DHT22;45054;52.062;10.010;2023-11-22T04:31:40;0.80;99.90
59282;DHT22;45054;52.062;10.010;2023-11-22T04:34:06;0.80;99.90
59282;DHT22;45054;52.062;10.010;2023-11-22T04:36:31;0.70;99.90
59282;DHT22;45054;52.062;10.010;2023-11-22T04:38:57;0.70;99.90
59282;DHT22;45054;52.062;10.010;2023-11-22T04:41:23;0.70;99.90
59282;DHT22;45054;52.062;10.010;2023-11-22T04:43:49;0.70;99.90
59282;DHT22;45054;52.062;10.010;2023-11-22T04:46:14;0.70;99.90
59282;DHT22;45054;52.062;10.010;2023-11-22T04:48:40;0.60;99.90
59282;DHT22;45054;52.062;10.010;2023-11-22T04:51:05;0.50;99.90
59282;DHT22;45054;52.062;10.010;2023-11-22T04:53:31;0.50;99.90
59282;DHT22;45054;52.062;10.010;2023-11-22T04:55:56;0.50;99.90
59282;DHT22;45054;52.062;10.010;2023-11-22T04:58:23;0.50;99.90
59282;DHT22;45054;52.062;10.010;2023-11-22T05:00:48;0.50;99.90
59282;DHT22;45054;52.062;10.010;2023-11-22T05:03:14;0.50;99.90
59282;DHT22;45054;52.062;10.010;2023-11-22T05:05:39;0.50;99.90
59282;DHT22;45054;52.062;10.010;2023-11-22T05:08:05;0.50;99.90
59282;DHT22;45054;52.062;10.010;2023-11-22T05:10:30;0.50;99.90
59282;DHT22;45054;52.062;10.010;2023-11-22T05:12:56;0.60;99.90
59282;DHT22;45054;52.062;10.010;2023-11-22T05:15:22;0.60;99.90
59282;DHT22;45054;52.062;10.010;2023-11-22T05:17:48;0.50;99.90
59282;DHT22;45054;52.062;10.010;2023-11-22T05:20:13;0.50;99.90
59282;DHT22;45054;52.062;10.010;2023-11-22T05:22:39;0.60;99.90
59282;DHT22;45054;52.062;10.010;2023-11-22T05:25:05;0.50;99.90
59282;DHT22;45054;52.062;10.010;2023-11-22T05:27:30;0.50;99.90
59282;DHT22;45054;52.062;10.010;2023-11-22T05:29:56;0.50;99.90
59282;DHT22;45054;52.062;10.010;2023-11-22T05:32:22;0.50;99.90
59282;DHT22;45054;52.062;10.010;2023-11-22T05:34:48;0.50;99.90
59282;DHT22;45054;52.062;10.010;2023-11-22T05:37:13;0.50;99.90
59282;DHT22;45054;52.062;10.010;2023-11-22T05:39:39;0.40;99.90
59282;DHT22;45054;52.062;10.010;2023-11-22T05:42:04;0.40;99.90
59282;DHT22;45054;52.062;10.010;2023-11-22T05:44:30;0.30;99.90
59282;DHT22;45054;52.062;10.010;2023-11-22T05:46:55;0.40;99.90
59282;DHT22;45054;52.062;10.010;2023-11-22T05:49:22;0.40;99.90
59282;DHT22;45054;52.062;10.010;2023-11-22T05:51:47;0.30;99.90
59282;DHT22;45054;52.062;10.010;2023-11-22T05:54:13;0.30;99.90
59282;DHT22;45054;52.062;10.010;2023-11-22T05:56:38;0.30;99.90
59282;DHT22;45054;52.062;10.010;2023-11-22T05:59:04;0.30;99.90
59282;DHT22;45054;52.062;10.010;2023-11-22T06:01:29;0.20;99.90
59282;DHT22;45054;52.062;10.010;2023-11-22T06:03:55;0.20;99.90
59282;DHT22;45054;52.062;10.010;2023-11-22T06:06:21;0.20;99.90
59282;DHT22;45054;52.062;10.010;2023-11-22T06:08:47;0.20;99.90
59282;DHT22;45054;52.062;10.010;2023-11-22T06:11:12;0.20;99.90
59282;DHT22;45054;52.062;10.010;2023-11-22T06:13:38;0.20;99.90
59282;DHT22;45054;52.062;10.010;2023-11-22T06:16:03;0.20;99.90
59282;DHT22;45054;52.062;10.010;2023-11-22T06:18:29;0.20;99.90
59282;DHT22;45054;52.062;10.010;2023-11-22T06:20:54;0.20;99.90
59282;DHT22;45054;52.062;10.010;2023-11-22T06:23:21;0.20;99.90
59282;DHT22;45054;52.062;10.010;2023-11-22T06:25:46;0.30;99.90
59282;DHT22;45054;52.062;10.010;2023-11-22T06:28:12;0.30;99.90
59282;DHT22;45054;52.062;10.010;2023-11-22T06:30:37;0.30;99.90
59282;DHT22;45054;52.062;10.010;2023-11-22T06:33:03;0.20;99.90
59282;DHT22;45054;52.062;10.010;2023-11-22T06:35:28;0.20;99.90
59282;DHT22;45054;52.062;10.010;2023-11-22T06:37:54;0.20;99.90
59282;DHT22;45054;52.062;10.010;2023-11-22T06:40:21;0.20;99.90
59282;DHT22;45054;52.062;10.010;2023-11-22T06:42:46;0.20;99.90
59282;DHT22;45054;52.062;10.010;2023-11-22T06:45:12;0.20;99.90
59282;DHT22;45054;52.062;10.010;2023-11-22T06:47:37;0.20;99.90
59282;DHT22;45054;52.062;10.010;2023-11-22T06:50:03;0.20;99.90
59282;DHT22;45054;52.062;10.010;2023-11-22T06:52:28;0.20;99.90
59282;DHT22;45054;52.062;10.010;2023-11-22T06:54:54;0.20;99.90
59282;DHT22;45054;52.062;10.010;2023-11-22T06:57:21;0.20;99.90
59282;DHT22;45054;52.062;10.010;2023-11-22T06:59:46;0.20;99.90
59282;DHT22;45054;52.062;10.010;2023-11-22T07:02:11;0.20;99.90
59282;DHT22;45054;52.062;10.010;2023-11-22T07:04:37;0.10;99.90
59282;DHT22;45054;52.062;10.010;2023-11-22T07:07:03;0.10;99.90
59282;DHT22;45054;52.062;10.010;2023-11-22T07:09:28;0.10;99.90
59282;DHT22;45054;52.062;10.010;2023-11-22T07:11:53;0.10;99.90
59282;DHT22;45054;52.062;10.010;2023-11-22T07:14:20;0.20;99.90
59282;DHT22;45054;52.062;10.010;2023-11-22T07:16:46;0.20;99.90
59282;DHT22;45054;52.062;10.010;2023-11-22T07:19:11;0.20;99.90
59282;DHT22;45054;52.062;10.010;2023-11-22T07:21:37;0.30;99.90
59282;DHT22;45054;52.062;10.010;2023-11-22T07:24:02;0.30;99.90
59282;DHT22;45054;52.062;10.010;2023-11-22T07:26:28;0.20;99.90
59282;DHT22;45054;52.062;10.010;2023-11-22T07:28:53;0.30;99.90
59282;DHT22;45054;52.062;10.010;2023-11-22T07:31:20;0.30;99.90
59282;DHT22;45054;52.062;10.010;2023-11-22T07:33:46;0.30;99.90
59282;DHT22;45054;52.062;10.010;2023-11-22T07:36:14;0.40;99.90
59282;DHT22;45054;52.062;10.010;2023-11-22T07:38:40;0.50;99.90
59282;DHT22;45054;52.062;10.010;2023-11-22T07:41:05;0.50;99.90
59282;DHT22;45054;52.062;10.010;2023-11-22T07:43:31;0.40;99.90
59282;DHT22;45054;52.062;10.010;2023-11-22T07:45:56;0.50;99.90
59282;DHT22;45054;52.062;10.010;2023-11-22T07:48:23;0.50;99.90
59282;DHT22;45054;52.062;10.010;2023-11-22T07:50:48;0.60;99.90
59282;DHT22;45054;52.062;10.010;2023-11-22T07:53:14;0.70;99.90
59282;DHT22;45054;52.062;10.010;2023-11-22T07:55:39;0.70;99.90
59282;DHT22;45054;52.062;10.010;2023-11-22T07:58:05;0.80;99.90
59282;DHT22;45054;52.062;10.010;2023-11-22T08:00:30;0.90;99.90
59282;DHT22;45054;52.062;10.010;2023-11-22T08:02:56;0.90;99.90
59282;DHT22;45054;52.062;10.010;2023-11-22T08:05:22;1.00;99.90
59282;DHT22;45054;52.062;10.010;2023-11-22T08:07:48;1.10;99.90
59282;DHT22;45054;52.062;10.010;2023-11-22T08:10:13;1.20;99.90
59282;DHT22;45054;52.062;10.010;2023-11-22T08:12:39;1.20;99.90
59282;DHT22;45054;52.062;10.010;2023-11-22T08:15:05;1.00;99.90
59282;DHT22;45054;52.062;10.010;2023-11-22T08:17:30;1.00;99.90
59282;DHT22;45054;52.062;10.010;2023-11-22T08:19:56;1.00;99.90
59282;DHT22;45054;52.062;10.010;2023-11-22T08:22:23;1.00;99.90
59282;DHT22;45054;52.062;10.010;2023-11-22T08:24:48;1.10;99.90
59282;DHT22;45054;52.062;10.010;2023-11-22T08:27:13;1.10;99.90
59282;DHT22;45054;52.062;10.010;2023-11-22T08:29:39;1.10;99.90
59282;DHT22;45054;52.062;10.010;2023-11-22T08:32:05;1.20;99.90
59282;DHT22;45054;52.062;10.010;2023-11-22T08:34:30;1.20;99.90
59282;DHT22;45054;52.062;10.010;2023-11-22T08:36:56;1.30;99.90
59282;DHT22;45054;52.062;10.010;2023-11-22T08:39:22;1.30;99.90
59282;DHT22;45054;52.062;10.010;2023-11-22T08:41:48;1.40;99.90
59282;DHT22;45054;52.062;10.010;2023-11-22T08:44:13;1.50;99.90
59282;DHT22;45054;52.062;10.010;2023-11-22T08:46:39;1.50;99.90
59282;DHT22;45054;52.062;10.010;2023-11-22T08:49:04;1.50;99.90
59282;DHT22;45054;52.062;10.010;2023-11-22T08:51:30;1.50;99.90
59282;DHT22;45054;52.062;10.010;2023-11-22T08:53:55;1.60;99.90
59282;DHT22;45054;52.062;10.010;2023-11-22T08:56:22;1.70;99.90
59282;DHT22;45054;52.062;10.010;2023-11-22T08:58:47;1.70;99.90
59282;DHT22;45054;52.062;10.010;2023-11-22T09:01:13;1.70;99.90
59282;DHT22;45054;52.062;10.010;2023-11-22T09:03:38;1.70;99.90
59282;DHT22;45054;52.062;10.010;2023-11-22T09:06:04;1.80;99.90
59282;DHT22;45054;52.062;10.010;2023-11-22T09:08:29;1.80;99.90
59282;DHT22;45054;52.062;10.010;2023-11-22T09:10:55;1.80;99.90
59282;DHT22;45054;52.062;10.010;2023-11-22T09:13:21;1.70;99.90
59282;DHT22;45054;52.062;10.010;2023-11-22T09:15:47;1.70;99.90
59282;DHT22;45054;52.062;10.010;2023-11-22T09:18:12;1.70;99.90
59282;DHT22;45054;52.062;10.010;2023-11-22T09:20:38;1.70;99.90
59282;DHT22;45054;52.062;10.010;2023-11-22T09:23:03;1.70;99.90
59282;DHT22;45054;52.062;10.010;2023-11-22T09:25:29;1.80;99.90
59282;DHT22;45054;52.062;10.010;2023-11-22T09:27:55;1.80;99.90
59282;DHT22;45054;52.062;10.010;2023-11-22T09:30:22;1.90;99.90
59282;DHT22;45054;52.062;10.010;2023-11-22T09:32:48;1.90;99.90
59282;DHT22;45054;52.062;10.010;2023-11-22T09:35:14;2.10;99.90
59282;DHT22;45054;52.062;10.010;2023-11-22T09:37:39;2.20;99.90
59282;DHT22;45054;52.062;10.010;2023-11-22T09:40:05;2.30;99.90
59282;DHT22;45054;52.062;10.010;2023-11-22T09:42:31;2.40;99.90
59282;DHT22;45054;52.062;10.010;2023-11-22T09:44:57;2.40;99.90
59282;DHT22;45054;52.062;10.010;2023-11-22T09:47:23;2.30;99.90
59282;DHT22;45054;52.062;10.010;2023-11-22T09:49:49;2.30;99.90
59282;DHT22;45054;52.062;10.010;2023-11-22T09:52:16;2.50;99.90
59282;DHT22;45054;52.062;10.010;2023-11-22T09:54:45;2.50;99.90
59282;DHT22;45054;52.062;10.010;2023-11-22T09:57:11;2.40;99.90
59282;DHT22;45054;52.062;10.010;2023-11-22T09:59:36;2.40;99.90
59282;DHT22;45054;52.062;10.010;2023-11-22T10:02:03;2.40;99.90
59282;DHT22;45054;52.062;10.010;2023-11-22T10:04:31;2.40;99.90
59282;DHT22;45054;52.062;10.010;2023-11-22T10:06:57;2.50;99.90
59282;DHT22;45054;52.062;10.010;2023-11-22T10:09:22;2.50;99.90
59282;DHT22;45054;52.062;10.010;2023-11-22T10:11:48;2.50;99.90
59282;DHT22;45054;52.062;10.010;2023-11-22T10:14:19;2.40;99.90
59282;DHT22;45054;52.062;10.010;2023-11-22T10:16:48;2.40;99.90
59282;DHT22;45054;52.062;10.010;2023-11-22T10:19:22;2.40;99.90
59282;DHT22;45054;52.062;10.010;2023-11-22T10:21:59;2.40;99.90
59282;DHT22;45054;52.062;10.010;2023-11-22T10:24:29;2.30;99.90
59282;DHT22;45054;52.062;10.010;2023-11-22T10:26:55;2.30;99.90
59282;DHT22;45054;52.062;10.010;2023-11-22T10:29:20;2.50;99.90
59282;DHT22;45054;52.062;10.010;2023-11-22T10:31:46;2.70;99.90
59282;DHT22;45054;52.062;10.010;2023-11-22T10:34:11;2.80;99.90
59282;DHT22;45054;52.062;10.010;2023-11-22T10:36:37;2.90;99.90
59282;DHT22;45054;52.062;10.010;2023-11-22T10:39:04;2.90;99.90
59282;DHT22;45054;52.062;10.010;2023-11-22T10:41:33;3.00;99.90
59282;DHT22;45054;52.062;10.010;2023-11-22T10:43:59;2.90;99.90
59282;DHT22;45054;52.062;10.010;2023-11-22T10:46:27;2.80;99.90
59282;DHT22;45054;52.062;10.010;2023-11-22T10:48:52;2.60;99.90
59282;DHT22;45054;52.062;10.010;2023-11-22T10:51:18;2.50;99.90
59282;DHT22;45054;52.062;10.010;2023-11-22T10:53:45;2.40;99.90
59282;DHT22;45054;52.062;10.010;2023-11-22T10:56:14;2.40;99.90
59282;DHT22;45054;52.062;10.010;2023-11-22T10:58:43;2.30;99.90
59282;DHT22;45054;52.062;10.010;2023-11-22T11:01:10;2.20;99.90
59282;DHT22;45054;52.062;10.010;2023-11-22T11:03:37;2.30;99.90
59282;DHT22;45054;52.062;10.010;2023-11-22T11:06:02;2.20;99.90
59282;DHT22;45054;52.062;10.010;2023-11-22T11:08:29;2.30;99.90
59282;DHT22;45054;52.062;10.010;2023-11-22T11:10:54;2.40;99.90
59282;DHT22;45054;52.062;10.010;2023-11-22T11:13:22;2.40;99.90
59282;DHT22;45054;52.062;10.010;2023-11-22T11:15:47;2.20;99.90
59282;DHT22;45054;52.062;10.010;2023-11-22T11:18:13;2.30;99.90
59282;DHT22;45054;52.062;10.010;2023-11-22T11:20:46;2.30;99.90
59282;DHT22;45054;52.062;10.010;2023-11-22T11:23:13;2.30;99.90
59282;DHT22;45054;52.062;10.010;2023-11-22T11:25:38;2.40;99.90
59282;DHT22;45054;52.062;10.010;2023-11-22T11:28:04;2.50;99.90
59282;DHT22;45054;52.062;10.010;2023-11-22T11:30:46;2.70;99.90
59282;DHT22;45054;52.062;10.010;2023-11-22T11:33:12;2.90;99.90
59282;DHT22;45054;52.062;10.010;2023-11-22T11:35:38;3.00;99.90
59282;DHT22;45054;52.062;10.010;2023-11-22T11:38:04;3.10;99.90
59282;DHT22;45054;52.062;10.010;2023-11-22T11:40:31;3.30;99.90
59282;DHT22;45054;52.062;10.010;2023-11-22T11:42:58;3.20;99.90
59282;DHT22;45054;52.062;10.010;2023-11-22T11:45:24;3.20;99.90
59282;DHT22;45054;52.062;10.010;2023-11-22T11:47:51;3.20;99.90
59282;DHT22;45054;52.062;10.010;2023-11-22T11:50:16;3.30;99.90
59282;DHT22;45054;52.062;10.010;2023-11-22T11:52:42;3.40;99.90
59282;DHT22;45054;52.062;10.010;2023-11-22T11:55:07;3.40;99.90
59282;DHT22;45054;52.062;10.010;2023-11-22T11:57:32;3.50;99.90
59282;DHT22;45054;52.062;10.010;2023-11-22T11:59:58;3.50;99.90
59282;DHT22;45054;52.062;10.010;2023-11-22T12:02:23;3.50;99.90
59282;DHT22;45054;52.062;10.010;2023-11-22T12:04:50;3.50;99.90
59282;DHT22;45054;52.062;10.010;2023-11-22T12:07:16;3.60;99.90
59282;DHT22;45054;52.062;10.010;2023-11-22T12:09:41;3.70;99.90
59282;DHT22;45054;52.062;10.010;2023-11-22T12:12:07;3.70;99.90
59282;DHT22;45054;52.062;10.010;2023-11-22T12:14:33;3.90;99.90
59282;DHT22;45054;52.062;10.010;2023-11-22T12:16:58;3.70;99.90
59282;DHT22;45054;52.062;10.010;2023-11-22T12:19:24;3.50;99.90
59282;DHT22;45054;52.062;10.010;2023-11-22T12:21:51;3.50;99.90
59282;DHT22;45054;52.062;10.010;2023-11-22T12:24:17;3.60;99.90
59282;DHT22;45054;52.062;10.010;2023-11-22T12:26:44;3.60;99.90
59282;DHT22;45054;52.062;10.010;2023-11-22T12:29:10;3.60;99.90
59282;DHT22;45054;52.062;10.010;2023-11-22T12:31:43;3.60;99.90
59282;DHT22;45054;52.062;10.010;2023-11-22T12:34:08;3.50;99.90
59282;DHT22;45054;52.062;10.010;2023-11-22T12:36:34;3.50;99.90
59282;DHT22;45054;52.062;10.010;2023-11-22T12:39:01;3.60;99.90
59282;DHT22;45054;52.062;10.010;2023-11-22T12:41:26;3.60;99.90
59282;DHT22;45054;52.062;10.010;2023-11-22T12:44:01;3.60;99.90
59282;DHT22;45054;52.062;10.010;2023-11-22T12:46:26;3.70;99.90
59282;DHT22;45054;52.062;10.010;2023-11-22T12:48:59;3.70;99.90
59282;DHT22;45054;52.062;10.010;2023-11-22T12:51:29;3.80;99.90
59282;DHT22;45054;52.062;10.010;2023-11-22T12:53:55;3.80;99.90
59282;DHT22;45054;52.062;10.010;2023-11-22T12:56:21;3.80;99.90
59282;DHT22;45054;52.062;10.010;2023-11-22T12:58:47;3.80;99.90
59282;DHT22;45054;52.062;10.010;2023-11-22T13:01:12;3.70;99.90
59282;DHT22;45054;52.062;10.010;2023-11-22T13:03:39;3.70;99.90
59282;DHT22;45054;52.062;10.010;2023-11-22T13:06:05;3.60;99.90
59282;DHT22;45054;52.062;10.010;2023-11-22T13:08:30;3.60;99.90
59282;DHT22;45054;52.062;10.010;2023-11-22T13:10:56;3.50;99.90
59282;DHT22;45054;52.062;10.010;2023-11-22T13:13:23;3.60;99.90
59282;DHT22;45054;52.062;10.010;2023-11-22T13:15:48;3.60;99.90
59282;DHT22;45054;52.062;10.010;2023-11-22T13:18:14;3.60;99.90
59282;DHT22;45054;52.062;10.010;2023-11-22T13:20:39;3.60;99.90
59282;DHT22;45054;52.062;10.010;2023-11-22T13:23:05;3.50;99.90
59282;DHT22;45054;52.062;10.010;2023-11-22T13:25:30;3.50;99.90
59282;DHT22;45054;52.062;10.010;2023-11-22T13:27:56;3.50;99.90
59282;DHT22;45054;52.062;10.010;2023-11-22T13:30:22;3.40;99.90
59282;DHT22;45054;52.062;10.010;2023-11-22T13:32:48;3.40;99.90
59282;DHT22;45054;52.062;10.010;2023-11-22T13:35:14;3.30;99.90
59282;DHT22;45054;52.062;10.010;2023-11-22T13:37:39;3.20;99.90
59282;DHT22;45054;52.062;10.010;2023-11-22T13:40:05;3.10;99.90
59282;DHT22;45054;52.062;10.010;2023-11-22T13:42:31;3.00;99.90
59282;DHT22;45054;52.062;10.010;2023-11-22T13:44:56;3.10;99.90
59282;DHT22;45054;52.062;10.010;2023-11-22T13:47:23;3.00;99.90
59282;DHT22;45054;52.062;10.010;2023-11-22T13:49:49;3.00;99.90
59282;DHT22;45054;52.062;10.010;2023-11-22T13:52:14;3.00;99.90
59282;DHT22;45054;52.062;10.010;2023-11-22T13:54:40;2.90;99.90
59282;DHT22;45054;52.062;10.010;2023-11-22T13:57:05;2.90;99.90
59282;DHT22;45054;52.062;10.010;2023-11-22T13:59:30;2.90;99.90
59282;DHT22;45054;52.062;10.010;2023-11-22T14:01:56;2.80;99.90
59282;DHT22;45054;52.062;10.010;2023-11-22T14:04:23;2.80;99.90
59282;DHT22;45054;52.062;10.010;2023-11-22T14:06:48;2.90;99.90
59282;DHT22;45054;52.062;10.010;2023-11-22T14:09:14;2.90;99.90
59282;DHT22;45054;52.062;10.010;2023-11-22T14:11:39;2.90;99.90
59282;DHT22;45054;52.062;10.010;2023-11-22T14:14:04;2.90;99.90
59282;DHT22;45054;52.062;10.010;2023-11-22T14:16:30;2.80;99.90
59282;DHT22;45054;52.062;10.010;2023-11-22T14:18:55;2.70;99.90
59282;DHT22;45054;52.062;10.010;2023-11-22T14:21:22;2.60;99.90
59282;DHT22;45054;52.062;10.010;2023-11-22T14:23:48;2.60;99.90
59282;DHT22;45054;52.062;10.010;2023-11-22T14:26:13;2.60;99.90
59282;DHT22;45054;52.062;10.010;2023-11-22T14:28:39;2.50;99.90
59282;DHT22;45054;52.062;10.010;2023-11-22T14:31:04;2.60;99.90
59282;DHT22;45054;52.062;10.010;2023-11-22T14:33:30;2.70;99.90
59282;DHT22;45054;52.062;10.010;2023-11-22T14:35:55;2.70;99.90
59282;DHT22;45054;52.062;10.010;2023-11-22T14:38:22;2.60;99.90
59282;DHT22;45054;52.062;10.010;2023-11-22T14:40:47;2.60;99.90
59282;DHT22;45054;52.062;10.010;2023-11-22T14:43:13;2.70;99.90
59282;DHT22;45054;52.062;10.010;2023-11-22T14:45:38;2.70;99.90
59282;DHT22;45054;52.062;10.010;2023-11-22T14:48:04;2.70;99.90
59282;DHT22;45054;52.062;10.010;2023-11-22T14:50:30;2.60;99.90
59282;DHT22;45054;52.062;10.010;2023-11-22T14:52:55;2.60;99.90
59282;DHT22;45054;52.062;10.010;2023-11-22T14:55:22;2.60;99.90
59282;DHT22;45054;52.062;10.010;2023-11-22T14:57:47;2.60;99.90
59282;DHT22;45054;52.062;10.010;2023-11-22T15:00:13;2.60;99.90
59282;DHT22;45054;52.062;10.010;2023-11-22T15:02:39;2.60;99.90
59282;DHT22;45054;52.062;10.010;2023-11-22T15:05:04;2.60;99.90
59282;DHT22;45054;52.062;10.010;2023-11-22T15:07:30;2.60;99.90
59282;DHT22;45054;52.062;10.010;2023-11-22T15:09:55;2.60;99.90
59282;DHT22;45054;52.062;10.010;2023-11-22T15:12:22;2.60;99.90
59282;DHT22;45054;52.062;10.010;2023-11-22T15:14:47;2.60;99.90
59282;DHT22;45054;52.062;10.010;2023-11-22T15:17:13;2.60;99.90
59282;DHT22;45054;52.062;10.010;2023-11-22T15:19:38;2.60;99.90
59282;DHT22;45054;52.062;10.010;2023-11-22T15:22:04;2.60;99.90